Time;durP1;ratioP1;P1;durP2;ratioP2;P2;SDS_P1;SDS_P2;PMS_P1;PMS_P2;Temp;Humidity;BMP_temperature;BMP_pressure;BME280_temperature;BME280_humidity;BME280_pressure;Samples;Min_cycle;Max_cycle;Signal;HPM_P1;HPM_P2
2022/08/31 00:03:58;;;;;;;8.10;3.55;;;21.50;1.00;;;;;;7361404;19;20595;-66
2022/08/31 00:06:28;;;;;;;6.28;3.83;;;21.50;1.00;;;;;;7365303;19;20105;-65
2022/08/31 00:08:59;;;;;;;5.90;4.25;;;21.50;1.00;;;;;;7366439;19;20045;-64
2022/08/31 00:11:30;;;;;;;7.32;4.00;;;21.50;1.00;;;;;;7380224;19;20097;-65
2022/08/31 00:14:02;;;;;;;7.65;3.83;;;21.40;1.00;;;;;;7359594;19;20014;-64
2022/08/31 00:16:37;;;;;;;4.22;3.65;;;21.40;1.00;;;;;;7364491;19;20018;-65
2022/08/31 00:19:08;;;;;;;5.78;3.85;;;21.40;1.00;;;;;;7366113;19;20030;-64
2022/08/31 00:21:38;;;;;;;6.22;3.95;;;21.40;1.00;;;;;;7359504;19;20006;-64
2022/08/31 00:24:08;;;;;;;6.13;3.92;;;21.40;1.00;;;;;;7361196;19;20027;-65
2022/08/31 00:26:39;;;;;;;12.50;4.35;;;21.30;1.00;;;;;;7370362;19;20026;-65
2022/08/31 00:29:09;;;;;;;4.70;3.55;;;21.30;1.00;;;;;;7387352;19;20070;-65
2022/08/31 00:31:42;;;;;;;7.07;4.22;;;21.30;1.00;;;;;;7359186;19;20011;-65
2022/08/31 00:34:12;;;;;;;5.00;3.58;;;21.20;1.00;;;;;;7360684;19;20089;-65
2022/08/31 00:36:42;;;;;;;7.53;3.70;;;21.20;1.00;;;;;;7363550;19;20026;-65
2022/08/31 00:39:11;;;;;;;4.63;3.38;;;21.20;1.00;;;;;;7365850;19;20021;-65
2022/08/31 00:41:42;;;;;;;6.15;3.78;;;21.10;1.00;;;;;;7359655;19;20197;-65
2022/08/31 00:44:13;;;;;;;9.70;3.63;;;21.00;1.00;;;;;;7381527;19;20014;-65
2022/08/31 00:46:46;;;;;;;6.03;3.95;;;21.00;1.00;;;;;;7363666;19;20011;-64
2022/08/31 00:49:19;;;;;;;6.72;4.15;;;21.10;1.00;;;;;;7365083;19;20010;-64
2022/08/31 00:51:54;;;;;;;6.38;4.07;;;21.30;1.00;;;;;;7357178;19;20078;-64
2022/08/31 00:54:28;;;;;;;5.80;4.18;;;21.30;1.00;;;;;;7360686;19;20407;-65
2022/08/31 00:56:59;;;;;;;6.10;3.88;;;21.30;1.00;;;;;;7363019;19;20133;-64
2022/08/31 00:59:29;;;;;;;4.78;4.28;;;20.90;1.00;;;;;;7394178;19;20023;-64
2022/08/31 01:02:03;;;;;;;7.15;5.43;;;20.60;1.00;;;;;;7366189;19;20090;-64
2022/08/31 01:04:33;;;;;;;8.82;5.05;;;20.30;1.00;;;;;;7367328;19;20035;-65
2022/08/31 01:07:04;;;;;;;8.55;5.22;;;20.00;1.00;;;;;;7371135;19;20007;-64
2022/08/31 01:09:38;;;;;;;8.70;5.75;;;20.00;1.00;;;;;;7372650;19;20093;-64
2022/08/31 01:12:14;;;;;;;8.85;5.70;;;19.80;1.00;;;;;;7365105;19;20027;-65
2022/08/31 01:14:44;;;;;;;7.72;6.07;;;19.80;1.30;;;;;;7366788;19;20025;-65
2022/08/31 01:17:17;;;;;;;6.78;6.03;;;19.70;3.90;;;;;;7390746;19;20050;-64
2022/08/31 01:19:55;;;;;;;8.98;6.05;;;19.80;4.80;;;;;;7371818;19;20531;-65
2022/08/31 01:22:34;;;;;;;7.80;6.60;;;19.80;5.60;;;;;;7366075;19;20013;-65
2022/08/31 01:25:07;;;;;;;7.43;6.03;;;19.70;6.50;;;;;;7369060;19;20042;-65
2022/08/31 01:27:38;;;;;;;7.45;6.47;;;19.60;7.40;;;;;;7369349;19;20082;-65
2022/08/31 01:30:11;;;;;;;8.00;6.70;;;19.50;9.60;;;;;;7370281;19;20372;-65
2022/08/31 01:32:41;;;;;;;9.98;6.47;;;19.50;10.50;;;;;;7365461;19;20088;-65
2022/08/31 01:35:11;;;;;;;9.93;6.50;;;19.50;11.20;;;;;;7390048;19;20002;-65
2022/08/31 01:37:41;;;;;;;7.53;5.88;;;19.50;10.90;;;;;;7368985;19;20014;-65
2022/08/31 01:40:14;;;;;;;6.35;5.65;;;19.50;11.40;;;;;;7369801;19;20379;-65
2022/08/31 01:42:44;;;;;;;13.38;6.60;;;19.50;11.10;;;;;;7364944;19;20038;-65
2022/08/31 01:45:14;;;;;;;8.10;6.40;;;19.50;12.10;;;;;;7368564;19;20497;-64
2022/08/31 01:47:44;;;;;;;11.38;7.03;;;19.50;12.70;;;;;;7368001;19;20003;-65
2022/08/31 01:50:14;;;;;;;7.63;6.45;;;19.40;13.00;;;;;;7390292;19;20031;-65
2022/08/31 01:52:44;;;;;;;7.72;6.47;;;19.30;14.00;;;;;;7363061;19;20040;-65
2022/08/31 01:55:17;;;;;;;7.65;6.88;;;19.30;14.50;;;;;;7368675;19;20017;-65
2022/08/31 01:57:47;;;;;;;8.88;6.35;;;19.40;14.20;;;;;;7367834;19;20018;-65
2022/08/31 02:00:17;;;;;;;9.30;6.50;;;19.40;14.70;;;;;;7368463;19;20071;-66
2022/08/31 02:02:47;;;;;;;9.75;6.68;;;19.30;15.60;;;;;;7367179;19;20426;-66
2022/08/31 02:05:17;;;;;;;9.25;6.63;;;19.20;17.30;;;;;;7388964;19;20010;-66
2022/08/31 02:07:47;;;;;;;8.15;6.20;;;19.20;18.00;;;;;;7369460;19;20014;-66
2022/08/31 02:10:20;;;;;;;7.30;6.07;;;19.20;18.30;;;;;;7366413;19;20007;-66
2022/08/31 02:12:49;;;;;;;8.48;6.32;;;19.20;18.70;;;;;;7365762;19;20011;-66
2022/08/31 02:15:19;;;;;;;7.15;6.20;;;19.00;20.20;;;;;;7367883;19;20082;-65
2022/08/31 02:17:50;;;;;;;9.30;6.78;;;19.00;20.90;;;;;;7368161;19;20074;-66
2022/08/31 02:20:21;;;;;;;9.93;7.05;;;18.90;21.10;;;;;;7388674;19;20020;-65
2022/08/31 02:22:51;;;;;;;8.35;7.20;;;18.90;21.20;;;;;;7365673;19;20021;-66
2022/08/31 02:25:24;;;;;;;10.18;6.60;;;18.90;21.20;;;;;;7366712;19;20018;-65
2022/08/31 02:27:54;;;;;;;10.05;6.70;;;18.80;22.50;;;;;;7367863;19;20018;-66
2022/08/31 02:30:24;;;;;;;9.98;6.40;;;18.90;22.20;;;;;;7366577;19;20070;-65
2022/08/31 02:32:54;;;;;;;11.43;7.38;;;18.90;22.20;;;;;;7363547;19;20011;-65
2022/08/31 02:35:24;;;;;;;10.85;7.30;;;19.00;21.70;;;;;;7388761;19;20014;-65
2022/08/31 02:37:54;;;;;;;9.82;7.43;;;18.90;21.60;;;;;;7368218;19;20014;-65
2022/08/31 02:40:26;;;;;;;11.93;7.22;;;18.80;22.80;;;;;;7365093;19;20014;-65
2022/08/31 02:42:56;;;;;;;9.88;7.35;;;18.80;23.00;;;;;;7365976;19;20007;-65
2022/08/31 02:45:26;;;;;;;10.02;7.13;;;18.80;23.20;;;;;;7369312;19;20085;-65
2022/08/31 02:47:56;;;;;;;9.00;7.20;;;18.70;23.90;;;;;;7364520;19;20006;-65
2022/08/31 02:50:26;;;;;;;8.48;7.50;;;18.70;24.30;;;;;;7384638;19;20391;-65
2022/08/31 02:52:56;;;;;;;8.10;7.00;;;18.70;24.60;;;;;;7363892;19;20021;-66
2022/08/31 02:55:29;;;;;;;8.88;6.88;;;18.60;25.20;;;;;;7368142;19;20023;-65
2022/08/31 02:57:59;;;;;;;10.52;7.50;;;18.70;25.00;;;;;;7365432;19;20011;-66
2022/08/31 03:00:29;;;;;;;10.10;6.72;;;18.70;24.50;;;;;;7363493;19;20002;-66
2022/08/31 03:02:59;;;;;;;9.35;7.07;;;18.70;24.70;;;;;;7364900;19;21364;-66
2022/08/31 03:05:29;;;;;;;7.53;6.50;;;18.70;24.60;;;;;;7389578;19;20014;-66
2022/08/31 03:07:59;;;;;;;10.80;7.30;;;18.60;24.50;;;;;;7365516;19;20018;-66
2022/08/31 03:10:32;;;;;;;8.07;7.05;;;18.70;24.80;;;;;;7362255;19;20517;-65
2022/08/31 03:13:02;;;;;;;9.00;6.90;;;18.70;24.20;;;;;;7363701;19;20010;-65
2022/08/31 03:15:32;;;;;;;9.73;7.10;;;18.60;24.20;;;;;;7367529;19;20018;-65
2022/08/31 03:18:02;;;;;;;8.38;6.97;;;18.60;24.50;;;;;;7365053;19;20014;-65
2022/08/31 03:20:36;;;;;;;7.57;6.30;;;18.60;23.70;;;;;;7384939;19;20010;-65
2022/08/31 03:23:06;;;;;;;8.95;6.57;;;18.50;22.90;;;;;;7364892;19;20019;-65
2022/08/31 03:25:39;;;;;;;8.57;6.13;;;18.60;23.00;;;;;;7366541;19;20013;-65
2022/08/31 03:28:10;;;;;;;10.60;7.63;;;18.60;22.20;;;;;;7365152;19;20015;-65
2022/08/31 03:30:40;;;;;;;10.15;7.43;;;18.50;22.40;;;;;;7362054;19;20744;-65
2022/08/31 03:33:10;;;;;;;9.15;7.05;;;18.60;21.60;;;;;;7363431;19;20010;-65
2022/08/31 03:35:42;;;;;;;8.00;6.30;;;18.70;21.00;;;;;;7367480;19;20022;-65
2022/08/31 03:38:12;;;;;;;7.57;6.32;;;18.60;20.90;;;;;;7386663;19;20014;-65
2022/08/31 03:40:46;;;;;;;6.82;6.20;;;18.60;20.30;;;;;;7360987;19;20059;-65
2022/08/31 03:43:16;;;;;;;8.13;7.00;;;18.70;19.90;;;;;;7363879;19;20006;-65
2022/08/31 03:45:47;;;;;;;7.15;6.32;;;18.60;20.90;;;;;;7365312;19;20038;-65
2022/08/31 03:48:17;;;;;;;9.85;6.50;;;18.60;21.00;;;;;;7366521;19;20010;-65
2022/08/31 03:50:47;;;;;;;8.23;5.93;;;18.50;20.90;;;;;;7360719;19;20057;-66
2022/08/31 03:53:17;;;;;;;7.63;6.78;;;18.60;20.90;;;;;;7383900;19;20569;-65
2022/08/31 03:55:59;;;;;;;;;;;18.50;20.90;;;;;;7364233;19;20010;-65
2022/08/31 03:58:30;;;;;;;6.88;6.00;;;18.60;21.00;;;;;;7366285;19;19979;-64
2022/08/31 04:01:00;;;;;;;7.68;6.03;;;18.60;20.50;;;;;;7361724;19;20010;-64
2022/08/31 04:03:30;;;;;;;8.23;6.38;;;18.60;21.40;;;;;;7362559;19;20018;-64
2022/08/31 04:06:00;;;;;;;11.88;7.00;;;18.50;20.80;;;;;;7363376;19;20074;-65
2022/08/31 04:08:30;;;;;;;11.75;6.70;;;18.40;20.90;;;;;;7387591;19;20014;-65
2022/08/31 04:11:10;;;;;;;8.30;6.75;;;18.40;21.90;;;;;;7359978;19;20014;-65
2022/08/31 04:13:41;;;;;;;7.63;6.90;;;18.40;21.60;;;;;;7362158;19;20078;-65
2022/08/31 04:16:13;;;;;;;11.50;7.20;;;18.50;22.10;;;;;;7363919;19;20354;-65
2022/08/31 04:18:44;;;;;;;7.88;6.93;;;18.50;22.20;;;;;;7366564;19;20513;-65
2022/08/31 04:21:15;;;;;;;8.15;6.35;;;18.50;22.10;;;;;;7360351;19;20013;-64
2022/08/31 04:23:45;;;;;;;8.00;6.35;;;18.60;21.80;;;;;;7363148;19;20085;-65
2022/08/31 04:26:23;;;;;;;7.38;6.60;;;18.60;21.80;;;;;;7384306;19;20348;-65
2022/08/31 04:28:54;;;;;;;9.52;6.40;;;18.50;21.80;;;;;;7366098;19;20126;-64
2022/08/31 04:31:26;;;;;;;8.27;6.72;;;18.50;22.60;;;;;;7360289;19;20481;-64
2022/08/31 04:33:57;;;;;;;7.30;6.15;;;18.50;22.50;;;;;;7361110;19;20015;-65
2022/08/31 04:36:28;;;;;;;9.90;6.53;;;18.50;22.70;;;;;;7362763;19;20018;-64
2022/08/31 04:38:59;;;;;;;9.00;6.70;;;18.50;22.20;;;;;;7365423;19;20024;-64
2022/08/31 04:41:34;;;;;;;8.68;7.38;;;18.60;22.80;;;;;;7379504;19;20015;-65
2022/08/31 04:44:06;;;;;;;7.97;6.50;;;18.50;21.40;;;;;;7362067;19;20027;-64
2022/08/31 04:46:38;;;;;;;8.95;6.75;;;18.50;22.10;;;;;;7361806;19;20015;-65
2022/08/31 04:49:13;;;;;;;9.20;6.55;;;18.50;21.80;;;;;;7364578;19;20444;-65
2022/08/31 04:51:44;;;;;;;8.80;6.70;;;18.50;21.80;;;;;;7359106;19;20019;-65
2022/08/31 04:54:15;;;;;;;8.35;5.95;;;18.40;21.50;;;;;;7360350;19;20010;-65
2022/08/31 04:56:47;;;;;;;9.20;7.10;;;18.30;20.70;;;;;;7360806;19;20017;-65
2022/08/31 04:59:24;;;;;;;8.65;6.32;;;18.50;20.90;;;;;;7387273;19;20268;-65
2022/08/31 05:01:54;;;;;;;10.18;6.60;;;18.50;21.20;;;;;;7358710;19;20090;-65
2022/08/31 05:04:27;;;;;;;9.77;6.50;;;18.50;20.90;;;;;;7360556;19;20011;-67
2022/08/31 05:06:57;;;;;;;10.03;6.70;;;18.60;21.10;;;;;;7361992;19;20021;-65
2022/08/31 05:09:28;;;;;;;8.15;6.63;;;18.50;20.90;;;;;;7364851;19;20375;-65
2022/08/31 05:12:00;;;;;;;18.88;6.80;;;18.50;21.90;;;;;;7359715;19;20409;-65
2022/08/31 05:14:30;;;;;;;9.82;7.45;;;18.50;22.30;;;;;;7383524;19;20022;-67
2022/08/31 05:17:01;;;;;;;8.20;7.25;;;18.40;23.60;;;;;;7359420;19;20010;-66
2022/08/31 05:19:30;;;;;;;9.18;7.32;;;18.50;24.40;;;;;;7362866;19;20090;-65
2022/08/31 05:22:00;;;;;;;9.80;7.68;;;18.50;25.00;;;;;;7357646;19;20100;-65
2022/08/31 05:24:34;;;;;;;8.32;7.53;;;18.50;25.60;;;;;;7360076;19;20501;-65
2022/08/31 05:27:08;;;;;;;10.77;7.90;;;18.40;26.20;;;;;;7359916;19;20007;-64
2022/08/31 05:29:38;;;;;;;14.25;9.13;;;18.40;27.70;;;;;;7377950;19;20010;-65
2022/08/31 05:32:08;;;;;;;11.10;8.23;;;18.30;28.50;;;;;;7381034;19;20026;-65
2022/08/31 05:34:38;;;;;;;11.23;9.00;;;18.40;28.90;;;;;;7360864;19;20006;-65
2022/08/31 05:37:08;;;;;;;16.33;8.88;;;18.30;29.60;;;;;;7358576;19;20015;-65
2022/08/31 05:39:38;;;;;;;14.00;8.60;;;18.40;30.00;;;;;;7362660;19;20042;-65
2022/08/31 05:42:14;;;;;;;11.88;8.63;;;18.30;29.60;;;;;;7359299;19;20014;-66
2022/08/31 05:44:44;;;;;;;12.07;8.32;;;18.30;29.80;;;;;;7362912;19;20074;-66
2022/08/31 05:47:14;;;;;;;12.75;8.57;;;18.40;29.10;;;;;;7388312;19;20026;-66
2022/08/31 05:49:45;;;;;;;10.20;7.95;;;18.50;28.90;;;;;;7369895;19;20011;-65
2022/08/31 05:52:17;;;;;;;12.00;7.53;;;18.70;28.00;;;;;;7363074;19;20516;-65
2022/08/31 05:54:47;;;;;;;14.10;8.65;;;18.50;26.80;;;;;;7366345;19;20010;-65
2022/08/31 05:57:19;;;;;;;10.10;7.70;;;18.50;26.20;;;;;;7367151;19;20013;-65
2022/08/31 05:59:55;;;;;;;9.30;7.57;;;18.40;24.60;;;;;;7370776;19;20014;-66
2022/08/31 06:02:27;;;;;;;10.82;7.75;;;18.50;23.40;;;;;;7387077;19;20022;-64
2022/08/31 06:04:58;;;;;;;10.02;7.68;;;18.50;23.50;;;;;;7367269;19;20010;-64
2022/08/31 06:07:28;;;;;;;11.50;7.43;;;18.50;22.90;;;;;;7366637;19;20006;-65
2022/08/31 06:09:58;;;;;;;9.52;7.75;;;18.50;20.90;;;;;;7370018;19;20013;-66
2022/08/31 06:12:33;;;;;;;8.82;6.95;;;18.40;17.70;;;;;;7363934;19;20546;-64
2022/08/31 06:15:04;;;;;;;;;;;18.40;17.50;;;;;;7369603;19;20007;-65
2022/08/31 06:17:34;;;;;;;12.43;7.07;;;18.50;17.30;;;;;;7387094;19;19906;-66
2022/08/31 06:20:05;;;;;;;7.88;6.97;;;18.50;17.50;;;;;;7369562;19;20018;-65
2022/08/31 06:22:36;;;;;;;8.13;6.35;;;18.50;12.40;;;;;;7365297;19;20100;-64
2022/08/31 06:25:09;;;;;;;7.32;6.43;;;18.50;12.00;;;;;;7367918;19;20082;-64
2022/08/31 06:27:42;;;;;;;11.90;6.38;;;18.50;13.10;;;;;;7366158;19;20014;-65
2022/08/31 06:30:18;;;;;;;6.90;6.07;;;18.50;9.30;;;;;;7367697;19;20478;-65
2022/08/31 06:32:48;;;;;;;7.93;5.95;;;18.50;9.70;;;;;;7364151;19;20002;-65
2022/08/31 06:35:18;;;;;;;11.68;5.85;;;18.50;9.70;;;;;;7389087;19;20016;-65
2022/08/31 06:37:48;;;;;;;10.63;6.22;;;18.40;7.20;;;;;;7364917;19;20541;-65
2022/08/31 06:40:18;;;;;;;8.40;5.85;;;18.50;8.10;;;;;;7365916;19;20355;-64
2022/08/31 06:42:51;;;;;;;11.43;5.68;;;18.50;5.40;;;;;;7365090;19;20431;-64
2022/08/31 06:45:21;;;;;;;8.45;5.90;;;18.40;6.00;;;;;;7368660;19;20007;-65
2022/08/31 06:47:50;;;;;;;10.25;6.07;;;18.50;6.90;;;;;;7362930;19;20022;-66
2022/08/31 06:50:20;;;;;;;7.93;6.75;;;18.60;6.20;;;;;;7386173;19;20025;-64
2022/08/31 06:52:51;;;;;;;7.15;6.20;;;18.70;6.30;;;;;;7364254;19;20010;-65
2022/08/31 06:55:22;;;;;;;7.85;6.30;;;18.60;5.00;;;;;;7366365;19;20066;-64
2022/08/31 06:57:54;;;;;;;10.82;6.85;;;18.70;5.40;;;;;;7365089;19;20023;-65
2022/08/31 07:00:24;;;;;;;9.57;6.10;;;18.70;5.40;;;;;;7364252;19;20086;-65
2022/08/31 07:02:54;;;;;;;7.85;5.15;;;18.70;2.70;;;;;;7365984;19;20018;-64
2022/08/31 07:05:26;;;;;;;8.80;5.68;;;18.60;1.90;;;;;;7388645;19;20022;-64
2022/08/31 07:07:56;;;;;;;7.45;5.05;;;18.70;1.00;;;;;;7364540;19;20011;-64
2022/08/31 07:10:26;;;;;;;7.97;5.47;;;18.70;1.00;;;;;;7363652;19;20023;-64
2022/08/31 07:12:59;;;;;;;6.55;4.88;;;18.70;1.00;;;;;;7365310;19;20098;-65
2022/08/31 07:15:29;;;;;;;6.85;5.60;;;18.60;1.00;;;;;;7366027;19;20010;-65
2022/08/31 07:17:58;;;;;;;7.80;5.55;;;18.60;1.00;;;;;;7364244;19;20015;-66
2022/08/31 07:20:28;;;;;;;7.68;5.00;;;18.70;1.00;;;;;;7385702;19;20015;-65
2022/08/31 07:22:58;;;;;;;9.48;5.20;;;18.70;1.00;;;;;;7364180;19;20010;-65
2022/08/31 07:25:28;;;;;;;7.55;5.38;;;18.70;1.00;;;;;;7367311;19;20017;-65
2022/08/31 07:28:01;;;;;;;7.05;4.43;;;18.60;1.00;;;;;;7363677;19;20021;-64
2022/08/31 07:30:37;;;;;;;6.97;5.43;;;18.70;1.00;;;;;;7359990;19;20112;-65
2022/08/31 07:33:08;;;;;;;7.35;5.53;;;18.60;1.00;;;;;;7363911;19;20779;-65
2022/08/31 07:35:38;;;;;;;7.30;5.35;;;18.70;1.00;;;;;;7383413;19;20022;-65
2022/08/31 07:43:37;;;;;;;5.75;4.63;;;18.80;1.00;;;;;;7361127;19;20034;-65
2022/08/31 07:46:08;;;;;;;5.50;4.80;;;18.60;1.00;;;;;;7359402;19;20043;-65
2022/08/31 07:48:38;;;;;;;5.22;4.50;;;18.70;1.00;;;;;;7363809;19;20015;-65
2022/08/31 07:51:09;;;;;;;8.38;4.85;;;18.60;1.00;;;;;;7360577;19;20097;-65
2022/08/31 07:53:43;;;;;;;6.90;5.30;;;18.60;1.00;;;;;;7362341;19;20090;-65
2022/08/31 07:56:13;;;;;;;8.98;5.10;;;18.70;1.00;;;;;;7386085;19;20018;-65
2022/08/31 07:58:46;;;;;;;7.95;5.88;;;18.80;1.00;;;;;;7364938;19;20811;-65
2022/08/31 08:01:16;;;;;;;9.02;4.93;;;18.80;1.00;;;;;;7359812;19;20474;-65
2022/08/31 08:03:46;;;;;;;8.05;5.45;;;18.70;1.00;;;;;;7362501;19;20106;-65
2022/08/31 08:06:18;;;;;;;8.18;4.82;;;18.90;1.00;;;;;;7364649;19;20018;-65
2022/08/31 08:08:48;;;;;;;7.25;5.47;;;19.00;1.00;;;;;;7364365;19;20023;-64
2022/08/31 08:11:40;;;;;;;8.52;5.47;;;18.90;1.00;;;;;;7377286;19;20022;-64
2022/08/31 08:14:13;;;;;;;6.00;4.95;;;18.80;1.00;;;;;;7384162;19;20021;-65
2022/08/31 08:16:43;;;;;;;8.52;5.45;;;18.60;1.00;;;;;;7359906;19;20018;-65
2022/08/31 08:19:13;;;;;;;8.32;5.78;;;18.70;1.00;;;;;;7362523;19;20018;-65
2022/08/31 08:21:44;;;;;;;9.60;5.15;;;18.70;1.00;;;;;;7358815;19;20018;-65
2022/08/31 08:24:15;;;;;;;11.13;4.97;;;18.70;1.00;;;;;;7358504;19;20133;-65
2022/08/31 08:26:47;;;;;;;6.70;5.13;;;18.60;1.00;;;;;;7356131;19;20038;-65
2022/08/31 08:29:25;;;;;;;7.60;5.43;;;18.60;1.00;;;;;;7385677;19;20054;-64
2022/08/31 08:31:55;;;;;;;7.18;5.47;;;18.70;1.00;;;;;;7359991;19;20014;-65
2022/08/31 08:34:26;;;;;;;9.68;5.68;;;18.60;1.00;;;;;;7361392;19;20093;-65
2022/08/31 08:37:02;;;;;;;6.05;5.10;;;18.70;1.00;;;;;;7360916;19;20387;-64
2022/08/31 08:39:31;;;;;;;8.98;6.07;;;18.60;1.00;;;;;;7363133;19;20022;-64
2022/08/31 08:42:01;;;;;;;8.18;6.05;;;18.50;1.00;;;;;;7356936;19;20021;-65
2022/08/31 08:44:34;;;;;;;7.25;5.57;;;18.40;1.00;;;;;;7380724;19;20397;-64
2022/08/31 08:47:07;;;;;;;7.07;5.60;;;18.60;1.00;;;;;;7360685;19;20094;-65
2022/08/31 08:49:42;;;;;;;11.30;5.65;;;18.60;1.00;;;;;;7363594;19;20035;-64
2022/08/31 08:52:18;;;;;;;7.43;5.90;;;18.60;1.00;;;;;;7358458;19;20470;-69
2022/08/31 08:54:50;;;;;;;7.53;5.47;;;18.60;1.00;;;;;;7352457;19;20094;-67
2022/08/31 08:57:23;;;;;;;9.07;5.90;;;18.80;1.00;;;;;;7381730;19;20019;-69
2022/08/31 08:59:59;;;;;;;9.65;5.85;;;18.80;1.00;;;;;;7361791;19;20027;-68
2022/08/31 09:02:43;;;;;;;9.55;5.55;;;18.60;1.00;;;;;;7381128;19;20007;-68
2022/08/31 09:05:37;;;;;;;8.77;5.75;;;18.80;1.00;;;;;;7361777;19;20093;-68
2022/08/31 09:08:34;;;;;;;12.23;6.20;;;18.90;1.00;;;;;;7361452;19;20010;-67
2022/08/31 09:11:16;;;;;;;10.75;5.70;;;18.80;1.00;;;;;;7358884;19;20018;-67
2022/08/31 09:13:57;;;;;;;7.47;5.13;;;18.90;1.00;;;;;;7357878;19;20379;-67
2022/08/31 09:16:41;;;;;;;6.68;5.72;;;19.10;1.00;;;;;;7356836;19;20085;-68
2022/08/31 09:19:14;;;;;;;7.70;5.38;;;19.20;1.00;;;;;;7367781;19;20010;-68
2022/08/31 09:21:48;;;;;;;7.82;5.75;;;19.20;1.00;;;;;;7363037;19;20015;-68
2022/08/31 09:24:21;;;;;;;8.23;5.68;;;19.30;1.00;;;;;;7366854;19;20090;-68
2022/08/31 09:27:03;;;;;;;7.53;5.22;;;19.40;1.00;;;;;;7366442;19;20474;-68
2022/08/31 09:29:34;;;;;;;7.05;5.85;;;19.30;1.00;;;;;;7393368;19;20094;-68
2022/08/31 09:32:08;;;;;;;8.57;5.90;;;19.20;1.00;;;;;;7365198;19;21201;-68
2022/08/31 09:34:42;;;;;;;8.85;5.93;;;19.40;1.00;;;;;;7366255;19;20031;-69
2022/08/31 09:37:15;;;;;;;11.00;5.85;;;19.40;1.00;;;;;;7367956;19;20074;-67
2022/08/31 09:39:49;;;;;;;8.55;6.70;;;19.50;1.00;;;;;;7371316;19;20044;-68
2022/08/31 09:42:29;;;;;;;11.50;5.90;;;19.50;1.00;;;;;;7365507;19;20052;-68
2022/08/31 09:45:02;;;;;;;8.57;6.07;;;19.50;1.00;;;;;;7366903;19;19999;-68
2022/08/31 09:47:47;;;;;;;8.18;5.78;;;19.60;1.00;;;;;;7387036;19;20026;-68
2022/08/31 09:50:34;;;;;;;7.05;5.43;;;19.70;1.00;;;;;;7368076;19;20010;-68
2022/08/31 09:56:12;;;;;;;13.23;5.65;;;20.00;1.00;;;;;;7366191;19;20018;-66
2022/08/31 09:58:45;;;;;;;8.80;5.75;;;19.80;1.00;;;;;;7367819;19;20014;-67
2022/08/31 10:01:20;;;;;;;6.95;6.10;;;20.00;1.00;;;;;;7359784;19;20074;-67
2022/08/31 10:04:13;;;;;;;7.55;5.63;;;19.90;1.00;;;;;;7365461;19;20078;-67
2022/08/31 10:06:49;;;;;;;8.45;6.30;;;20.00;1.00;;;;;;7365915;19;20027;-67
2022/08/31 10:09:27;;;;;;;9.57;5.78;;;20.00;1.00;;;;;;7368739;19;21206;-68
2022/08/31 10:12:03;;;;;;;7.93;5.95;;;20.10;1.00;;;;;;7362919;19;20021;-67
2022/08/31 10:14:38;;;;;;;8.43;5.90;;;20.10;1.00;;;;;;7385323;19;20464;-68
2022/08/31 10:17:14;;;;;;;10.77;6.00;;;20.40;1.00;;;;;;7362755;19;20478;-67
2022/08/31 10:19:54;;;;;;;8.13;5.80;;;20.30;1.00;;;;;;7366382;19;20021;-69
2022/08/31 10:22:33;;;;;;;8.35;6.40;;;19.80;1.00;;;;;;7362111;19;20105;-68
2022/08/31 10:25:20;;;;;;;9.32;6.22;;;20.00;1.00;;;;;;7366540;19;20342;-67
2022/08/31 10:27:55;;;;;;;7.93;6.18;;;20.20;1.00;;;;;;7364717;19;20010;-68
2022/08/31 10:30:31;;;;;;;11.27;6.30;;;20.30;1.00;;;;;;7362381;19;20756;-68
2022/08/31 10:33:07;;;;;;;12.50;6.30;;;20.20;1.00;;;;;;7363922;19;20022;-68
2022/08/31 10:35:53;;;;;;;12.02;6.90;;;20.20;1.00;;;;;;7387923;19;20011;-67
2022/08/31 10:38:32;;;;;;;8.23;6.05;;;20.30;1.00;;;;;;7364868;19;20029;-68
2022/08/31 10:41:11;;;;;;;7.30;5.85;;;19.90;1.00;;;;;;7361730;19;20018;-68
2022/08/31 10:43:47;;;;;;;9.43;5.15;;;20.30;1.00;;;;;;7363345;19;20025;-69
2022/08/31 10:46:18;;;;;;;12.20;6.22;;;20.30;1.00;;;;;;7365176;19;20014;-69
2022/08/31 10:48:53;;;;;;;7.00;6.30;;;20.30;1.00;;;;;;7367392;19;20477;-68
2022/08/31 10:51:38;;;;;;;7.55;6.35;;;20.00;1.00;;;;;;7361375;19;20022;-67
2022/08/31 10:54:20;;;;;;;;;;;20.10;1.00;;;;;;7364266;19;20471;-68
2022/08/31 10:57:00;;;;;;;9.82;6.18;;;20.30;1.00;;;;;;7361936;19;19918;-67
2022/08/31 10:59:35;;;;;;;9.13;6.57;;;20.30;1.00;;;;;;7388613;19;20022;-68
2022/08/31 11:02:33;;;;;;;9.25;6.38;;;20.30;1.00;;;;;;7360209;19;20491;-67
2022/08/31 11:05:29;;;;;;;9.57;6.38;;;20.10;1.00;;;;;;7363397;19;20024;-68
2022/08/31 11:08:37;;;;;;;8.85;6.57;;;20.10;1.00;;;;;;7363269;19;20015;-68
2022/08/31 11:11:12;;;;;;;7.88;6.90;;;20.20;1.00;;;;;;7359806;19;20103;-67
2022/08/31 11:14:00;;;;;;;11.95;6.10;;;20.10;1.00;;;;;;7362767;19;20090;-68
2022/08/31 11:16:57;;;;;;;9.82;5.95;;;20.10;1.00;;;;;;7362016;19;20018;-68
2022/08/31 11:19:49;;;;;;;9.80;6.80;;;20.20;1.00;;;;;;7365720;19;20011;-67
2022/08/31 11:22:39;;;;;;;16.88;6.63;;;20.20;1.00;;;;;;7360835;19;20087;-68
2022/08/31 11:25:36;;;;;;;9.00;6.60;;;20.20;1.00;;;;;;7362949;19;20027;-67
2022/08/31 11:28:11;;;;;;;8.57;6.70;;;20.20;1.00;;;;;;7363201;19;20011;-68
2022/08/31 11:30:47;;;;;;;8.05;6.55;;;20.30;1.00;;;;;;7360655;19;20102;-68
2022/08/31 11:33:26;;;;;;;9.18;6.35;;;20.30;1.00;;;;;;7363511;19;20014;-69
2022/08/31 11:36:04;;;;;;;8.75;6.65;;;20.30;1.00;;;;;;7365658;19;20106;-67
2022/08/31 11:39:34;;;;;;;10.90;6.55;;;20.20;1.00;;;;;;7364363;19;20010;-68
2022/08/31 11:42:11;;;;;;;9.48;6.55;;;20.30;1.00;;;;;;7357616;19;20015;-67
2022/08/31 11:45:07;;;;;;;10.05;6.30;;;20.20;1.00;;;;;;7360427;19;20366;-69
2022/08/31 11:47:46;;;;;;;8.25;6.43;;;20.30;1.00;;;;;;7360524;19;20014;-68
2022/08/31 11:50:56;;;;;;;7.32;6.00;;;20.30;1.00;;;;;;7383361;19;20034;-67
2022/08/31 11:53:36;;;;;;;10.80;6.72;;;20.30;1.00;;;;;;7363043;19;20098;-67
2022/08/31 11:56:08;;;;;;;13.57;6.70;;;20.30;1.00;;;;;;7364125;19;20077;-67
2022/08/31 11:58:43;;;;;;;8.68;6.43;;;20.50;1.00;;;;;;7363799;19;20035;-68
2022/08/31 12:01:35;;;;;;;7.50;5.80;;;20.40;1.00;;;;;;7362007;19;20012;-68
2022/08/31 12:04:05;;;;;;;9.70;6.55;;;20.40;1.00;;;;;;7363646;19;20030;-68
2022/08/31 12:06:58;;;;;;;7.05;5.85;;;20.70;1.00;;;;;;7362844;19;20003;-68
2022/08/31 12:09:55;;;;;;;8.88;6.22;;;20.90;1.00;;;;;;7366298;19;20078;-67
2022/08/31 12:12:35;;;;;;;11.20;7.40;;;20.90;1.00;;;;;;7360044;19;20020;-67
2022/08/31 12:15:16;;;;;;;9.98;6.60;;;20.80;1.00;;;;;;7365191;19;20426;-67
2022/08/31 12:18:00;;;;;;;12.98;6.63;;;20.90;1.00;;;;;;7361948;19;20020;-67
2022/08/31 12:23:39;;;;;;;12.73;7.63;;;21.10;1.00;;;;;;7362063;19;20015;-67
2022/08/31 12:26:41;;;;;;;8.52;6.03;;;21.40;1.00;;;;;;7364372;19;20455;-68
2022/08/31 12:29:27;;;;;;;8.35;6.53;;;21.70;1.00;;;;;;7365679;19;20013;-67
2022/08/31 12:32:10;;;;;;;9.98;6.00;;;21.90;1.00;;;;;;7360040;19;20482;-67
2022/08/31 12:34:46;;;;;;;10.70;7.07;;;22.10;1.00;;;;;;7361944;19;20017;-68
2022/08/31 12:37:25;;;;;;;9.48;6.50;;;22.20;1.00;;;;;;7360678;19;20074;-68
2022/08/31 12:40:11;;;;;;;7.55;6.03;;;22.30;1.00;;;;;;7366035;19;20007;-68
2022/08/31 12:42:45;;;;;;;10.23;6.80;;;22.40;1.00;;;;;;7361135;19;20010;-68
2022/08/31 12:45:18;;;;;;;7.45;5.90;;;22.30;1.00;;;;;;7363988;19;20024;-68
2022/08/31 12:48:02;;;;;;;7.68;6.18;;;21.90;1.00;;;;;;7360458;19;20040;-68
2022/08/31 12:50:39;;;;;;;9.48;5.70;;;22.60;1.00;;;;;;7380495;19;20021;-67
2022/08/31 12:53:43;;;;;;;8.23;6.40;;;22.90;1.00;;;;;;7364397;19;20014;-68
2022/08/31 12:56:20;;;;;;;9.73;6.53;;;22.60;1.00;;;;;;7368974;19;20011;-68
2022/08/31 12:59:02;;;;;;;8.23;5.97;;;22.80;1.00;;;;;;7371059;19;20006;-68
2022/08/31 13:01:32;;;;;;;10.70;6.78;;;23.10;1.00;;;;;;7366459;19;20522;-68
2022/08/31 13:04:05;;;;;;;11.30;6.68;;;22.80;1.00;;;;;;7369596;19;20025;-68
2022/08/31 13:06:37;;;;;;;11.27;5.72;;;22.50;1.00;;;;;;7368316;19;20002;-68
2022/08/31 13:09:08;;;;;;;9.73;6.72;;;22.40;1.00;;;;;;7370084;19;20552;-67
2022/08/31 13:11:41;;;;;;;9.30;6.35;;;22.20;1.00;;;;;;7387912;19;20006;-67
2022/08/31 13:14:19;;;;;;;10.27;6.10;;;22.60;1.00;;;;;;7368380;19;20006;-68
2022/08/31 13:16:52;;;;;;;8.57;6.53;;;22.50;1.00;;;;;;7367012;19;20270;-67
2022/08/31 13:19:29;;;;;;;6.63;5.73;;;22.70;1.00;;;;;;7370750;19;20010;-67
2022/08/31 13:22:00;;;;;;;10.13;6.15;;;22.80;1.00;;;;;;7366291;19;20423;-68
2022/08/31 13:24:33;;;;;;;6.72;5.90;;;23.00;1.00;;;;;;7368550;19;20086;-68
2022/08/31 13:27:08;;;;;;;9.43;5.70;;;23.00;1.00;;;;;;7366285;19;20014;-68
2022/08/31 13:29:43;;;;;;;8.93;6.43;;;23.10;1.00;;;;;;7393568;19;20010;-68
2022/08/31 13:32:16;;;;;;;9.13;6.30;;;22.80;1.00;;;;;;7366008;19;20011;-69
2022/08/31 13:34:48;;;;;;;9.57;5.40;;;22.60;1.00;;;;;;7367498;19;20458;-68
2022/08/31 13:37:27;;;;;;;7.63;5.57;;;22.90;1.00;;;;;;7367329;19;20066;-68
2022/08/31 13:39:57;;;;;;;8.02;5.88;;;23.10;1.00;;;;;;7370813;19;20010;-68
2022/08/31 13:42:38;;;;;;;11.60;5.75;;;23.20;1.00;;;;;;7366040;19;20563;-68